Time;durP1;ratioP1;P1;durP2;ratioP2;P2;SDS_P1;SDS_P2;PMS_P1;PMS_P2;Temp;Humidity;BMP_temperature;BMP_pressure;BME280_temperature;BME280_humidity;BME280_pressure;Samples;Min_cycle;Max_cycle;Signal;HPM_P1;HPM_P2
2021/07/25 00:01:02;;;;;;;13.88;11.57;;;;;24.30;100683.00;;;;5091469;28;20225;-76
2021/07/25 00:03:29;;;;;;;14.27;11.43;;;;;24.30;100683.00;;;;5091850;28;20202;-76
2021/07/25 00:05:58;;;;;;;14.30;12.30;;;;;24.30;100682.00;;;;5091263;28;20194;-77
2021/07/25 00:08:25;;;;;;;15.32;11.73;;;;;24.30;100679.00;;;;5084217;28;20657;-76
2021/07/25 00:10:53;;;;;;;17.63;12.85;;;;;24.30;100686.00;;;;5080740;28;20278;-77
2021/07/25 00:13:20;;;;;;;13.30;11.75;;;;;24.30;100685.00;;;;5078902;28;20723;-76
2021/07/25 00:15:47;;;;;;;13.77;11.63;;;;;24.20;100683.00;;;;5072475;28;20195;-76
2021/07/25 00:18:15;;;;;;;11.95;10.65;;;;;24.30;100686.00;;;;5087671;28;20198;-76
2021/07/25 00:20:42;;;;;;;13.82;11.98;;;;;24.20;100676.00;;;;5090347;28;20214;-76
2021/07/25 00:23:17;;;;;;;16.92;11.95;;;;;24.20;100674.00;;;;5071803;28;20549;-76
2021/07/25 00:25:46;;;;;;;14.00;11.35;;;;;24.20;100668.00;;;;5073502;28;20213;-76
2021/07/25 00:28:17;;;;;;;14.10;11.93;;;;;24.20;100669.00;;;;5087697;28;20664;-76
2021/07/25 00:30:45;;;;;;;14.32;12.23;;;;;24.20;100670.00;;;;5088772;28;20849;-78
2021/07/25 00:33:13;;;;;;;13.60;11.63;;;;;24.20;100661.00;;;;5084919;28;20284;-75
2021/07/25 00:35:40;;;;;;;15.40;12.05;;;;;24.20;100661.00;;;;5090406;28;20221;-75
2021/07/25 00:38:07;;;;;;;12.50;11.20;;;;;24.20;100657.00;;;;5090580;28;20194;-75
2021/07/25 00:40:43;;;;;;;13.27;11.80;;;;;24.10;100648.00;;;;5086747;28;20199;-75
2021/07/25 00:43:23;;;;;;;13.85;12.25;;;;;24.20;100650.00;;;;5086155;28;20211;-75
2021/07/25 00:45:51;;;;;;;14.90;11.68;;;;;24.20;100646.00;;;;5074863;28;20220;-76
2021/07/25 00:48:19;;;;;;;13.98;12.00;;;;;24.20;100647.00;;;;5083580;28;20199;-75
2021/07/25 00:50:47;;;;;;;13.88;12.50;;;;;24.10;100650.00;;;;5082532;28;20217;-75
2021/07/25 00:53:14;;;;;;;15.63;12.68;;;;;24.10;100637.00;;;;5083513;28;20227;-75
2021/07/25 00:55:43;;;;;;;15.10;12.52;;;;;24.10;100640.00;;;;5087708;28;20202;-75
2021/07/25 00:58:10;;;;;;;15.32;12.77;;;;;24.10;100633.00;;;;5081061;28;20206;-75
2021/07/25 01:00:38;;;;;;;14.07;11.52;;;;;24.10;100625.00;;;;5088305;28;20214;-75
2021/07/25 01:03:13;;;;;;;14.63;11.95;;;;;24.10;100619.00;;;;5089619;28;20199;-75
2021/07/25 01:05:45;;;;;;;14.68;12.75;;;;;24.10;100622.00;;;;5079394;28;20618;-75
2021/07/25 01:08:18;;;;;;;16.38;13.55;;;;;24.10;100616.00;;;;5076320;28;20221;-75
2021/07/25 01:10:50;;;;;;;14.07;12.25;;;;;24.10;100624.00;;;;5090884;28;20209;-75
2021/07/25 01:13:23;;;;;;;13.10;11.73;;;;;24.10;100616.00;;;;5075033;28;20223;-75
2021/07/25 01:15:51;;;;;;;14.93;12.27;;;;;24.10;100618.00;;;;5084558;28;20198;-75
2021/07/25 01:18:18;;;;;;;16.33;13.02;;;;;24.10;100618.00;;;;5089015;28;20202;-75
2021/07/25 01:20:47;;;;;;;16.85;13.98;;;;;24.10;100616.00;;;;5089359;28;20237;-75
2021/07/25 01:23:14;;;;;;;16.55;13.98;;;;;24.10;100618.00;;;;5071687;28;20774;-75
2021/07/25 01:25:42;;;;;;;16.25;12.90;;;;;24.10;100617.00;;;;5070836;28;20214;-75
2021/07/25 01:28:14;;;;;;;18.13;13.60;;;;;24.10;100627.00;;;;5089732;28;20259;-75
2021/07/25 01:30:47;;;;;;;16.27;13.50;;;;;24.10;100624.00;;;;5090560;28;20221;-75
2021/07/25 01:33:20;;;;;;;18.38;13.52;;;;;24.10;100620.00;;;;5073047;28;20230;-75
2021/07/25 01:35:49;;;;;;;17.08;13.23;;;;;24.10;100624.00;;;;5075606;28;20224;-75
2021/07/25 01:38:17;;;;;;;15.82;13.15;;;;;24.10;100626.00;;;;5071385;28;20660;-75
2021/07/25 01:41:00;;;;;;;16.45;13.90;;;;;24.10;100623.00;;;;5083265;28;20210;-75
2021/07/25 01:43:27;;;;;;;16.40;14.05;;;;;24.10;100627.00;;;;5086680;28;20202;-75
2021/07/25 01:45:54;;;;;;;16.05;12.43;;;;;24.10;100627.00;;;;5081760;28;20198;-75
2021/07/25 01:48:21;;;;;;;16.15;12.82;;;;;24.10;100619.00;;;;5088925;28;20194;-75
2021/07/25 01:50:50;;;;;;;19.85;14.20;;;;;24.10;100619.00;;;;5077438;28;20195;-75
2021/07/25 01:53:17;;;;;;;17.10;13.75;;;;;24.10;100622.00;;;;5076462;28;20225;-75
2021/07/25 01:55:45;;;;;;;17.45;13.25;;;;;24.10;100625.00;;;;5085060;28;20210;-75
2021/07/25 01:58:12;;;;;;;18.30;14.73;;;;;24.10;100624.00;;;;5084232;28;20206;-75
2021/07/25 02:00:40;;;;;;;16.23;13.48;;;;;24.10;100626.00;;;;5088419;28;20244;-75
2021/07/25 02:03:07;;;;;;;17.63;14.85;;;;;24.10;100625.00;;;;5080681;28;20202;-75
2021/07/25 02:05:37;;;;;;;16.17;12.98;;;;;24.10;100623.00;;;;5086237;28;20198;-75
2021/07/25 02:08:06;;;;;;;16.05;13.40;;;;;24.00;100633.00;;;;5081921;28;20244;-75
2021/07/25 02:10:33;;;;;;;19.40;15.05;;;;;24.10;100628.00;;;;5086085;28;20198;-75
2021/07/25 02:13:01;;;;;;;19.40;14.23;;;;;24.10;100626.00;;;;5083593;28;20237;-75
2021/07/25 02:15:28;;;;;;;17.65;13.82;;;;;24.10;100626.00;;;;5080535;28;20206;-75
2021/07/25 02:17:55;;;;;;;17.40;14.23;;;;;24.00;100631.00;;;;5073566;28;20210;-75
2021/07/25 02:20:22;;;;;;;20.73;14.88;;;;;24.00;100631.00;;;;5088537;28;20241;-75
2021/07/25 02:22:49;;;;;;;15.27;13.43;;;;;24.00;100629.00;;;;5077551;28;20199;-75
2021/07/25 02:25:18;;;;;;;16.25;13.77;;;;;24.00;100633.00;;;;5085673;28;20205;-75
2021/07/25 02:27:45;;;;;;;16.58;13.68;;;;;24.00;100626.00;;;;5089686;28;20198;-75
2021/07/25 02:30:13;;;;;;;18.13;14.43;;;;;24.00;100626.00;;;;5079439;28;20202;-75
2021/07/25 02:32:40;;;;;;;17.00;14.23;;;;;24.00;100621.00;;;;5080909;28;20201;-75
2021/07/25 02:35:08;;;;;;;17.95;14.93;;;;;24.00;100618.00;;;;5070557;28;20245;-75
2021/07/25 02:37:36;;;;;;;18.80;15.05;;;;;24.00;100612.00;;;;5083194;28;20253;-75
2021/07/25 02:40:03;;;;;;;17.20;14.23;;;;;24.00;100604.00;;;;5075512;28;20202;-75
2021/07/25 02:42:32;;;;;;;18.52;13.77;;;;;23.90;100604.00;;;;5074454;28;20207;-75
2021/07/25 02:44:59;;;;;;;18.25;14.13;;;;;23.90;100602.00;;;;5083137;28;20202;-75
2021/07/25 02:47:26;;;;;;;19.63;15.27;;;;;23.90;100592.00;;;;5084842;28;20214;-75
2021/07/25 02:49:53;;;;;;;17.55;14.45;;;;;23.90;100591.00;;;;5086591;28;20569;-75
2021/07/25 02:52:21;;;;;;;21.05;15.60;;;;;23.90;100591.00;;;;5087743;28;20205;-76
2021/07/25 02:54:48;;;;;;;17.63;13.80;;;;;23.90;100590.00;;;;5079617;28;20233;-75
2021/07/25 02:57:15;;;;;;;17.48;13.82;;;;;23.80;100593.00;;;;5087856;28;20209;-75
2021/07/25 02:59:44;;;;;;;17.20;14.18;;;;;23.80;100591.00;;;;5075708;28;20207;-75
2021/07/25 03:02:11;;;;;;;16.30;13.93;;;;;23.80;100582.00;;;;5074205;28;20210;-75
2021/07/25 03:04:41;;;;;;;18.85;14.00;;;;;23.80;100567.00;;;;5074950;28;20206;-75
2021/07/25 03:07:08;;;;;;;17.50;14.05;;;;;23.80;100578.00;;;;5088429;28;20194;-76
2021/07/25 03:09:35;;;;;;;18.23;14.38;;;;;23.80;100572.00;;;;5085671;28;20233;-75
2021/07/25 03:12:03;;;;;;;20.33;15.52;;;;;23.80;100569.00;;;;5069803;28;20203;-75
2021/07/25 03:14:30;;;;;;;16.65;14.23;;;;;23.70;100576.00;;;;5073873;28;20249;-75
2021/07/25 03:16:59;;;;;;;17.73;13.52;;;;;23.70;100582.00;;;;5072407;28;20198;-75
2021/07/25 03:19:26;;;;;;;18.00;14.82;;;;;23.70;100580.00;;;;5080507;28;20225;-75
2021/07/25 03:21:53;;;;;;;17.70;14.20;;;;;23.70;100580.00;;;;5084625;28;20205;-75
2021/07/25 03:24:20;;;;;;;17.23;14.23;;;;;23.70;100578.00;;;;5089812;28;20567;-76
2021/07/25 03:26:49;;;;;;;18.33;13.82;;;;;23.70;100586.00;;;;5084629;28;20202;-76
2021/07/25 03:29:16;;;;;;;14.43;12.60;;;;;23.70;100589.00;;;;5073449;28;20203;-76
2021/07/25 03:31:43;;;;;;;16.20;13.15;;;;;23.70;100580.00;;;;5087025;28;20221;-76
2021/07/25 03:34:12;;;;;;;16.35;13.75;;;;;23.60;100581.00;;;;5082687;28;20234;-76
2021/07/25 03:36:39;;;;;;;20.65;14.02;;;;;23.60;100588.00;;;;5068588;28;20237;-76
2021/07/25 03:39:13;;;;;;;15.90;13.48;;;;;23.60;100579.00;;;;5068155;28;20657;-75
2021/07/25 03:41:40;;;;;;;18.23;13.85;;;;;23.60;100574.00;;;;5073247;28;20243;-76
2021/07/25 03:44:08;;;;;;;17.58;13.20;;;;;23.60;100580.00;;;;5079050;28;20206;-76
2021/07/25 03:46:36;;;;;;;18.67;13.88;;;;;23.60;100583.00;;;;5068615;28;20214;-76
2021/07/25 03:49:03;;;;;;;16.02;12.73;;;;;23.60;100587.00;;;;5067235;28;20199;-76
2021/07/25 03:51:32;;;;;;;17.23;13.15;;;;;23.50;100582.00;;;;5071898;28;20194;-76
2021/07/25 03:53:59;;;;;;;16.65;13.40;;;;;23.50;100588.00;;;;5082365;28;20218;-76
2021/07/25 03:56:27;;;;;;;16.15;12.65;;;;;23.50;100590.00;;;;5084792;28;20210;-76
2021/07/25 03:58:54;;;;;;;17.20;13.98;;;;;23.50;100587.00;;;;5075996;28;20195;-76
2021/07/25 04:01:21;;;;;;;20.15;14.60;;;;;23.50;100582.00;;;;5067424;28;20201;-76
2021/07/25 04:03:48;;;;;;;16.52;13.75;;;;;23.50;100588.00;;;;5068215;28;20203;-76
2021/07/25 04:06:15;;;;;;;19.67;14.50;;;;;23.50;100590.00;;;;5079815;28;20897;-76
2021/07/25 04:08:44;;;;;;;25.08;14.85;;;;;23.50;100587.00;;;;5068154;28;20202;-76
2021/07/25 04:11:18;;;;;;;22.00;14.63;;;;;23.50;100591.00;;;;5079432;28;20206;-76
2021/07/25 04:13:45;;;;;;;18.52;15.40;;;;;23.50;100577.00;;;;5079186;28;20349;-76
2021/07/25 04:16:12;;;;;;;17.83;14.50;;;;;23.50;100595.00;;;;5068052;28;20209;-76
2021/07/25 04:18:39;;;;;;;19.35;16.05;;;;;23.50;100590.00;;;;5088453;28;20191;-76
2021/07/25 04:21:06;;;;;;;17.83;14.68;;;;;23.60;100579.00;;;;5084113;28;20248;-76
2021/07/25 04:23:34;;;;;;;21.20;15.40;;;;;23.60;100581.00;;;;5068502;28;20203;-76
2021/07/25 04:26:03;;;;;;;17.95;14.45;;;;;23.50;100579.00;;;;5067835;28;20202;-76
2021/07/25 04:28:30;;;;;;;19.40;15.73;;;;;23.50;100577.00;;;;5086536;28;20210;-76
2021/07/25 04:30:58;;;;;;;22.23;15.40;;;;;23.50;100579.00;;;;5083178;28;20198;-76
2021/07/25 04:33:26;;;;;;;20.15;14.60;;;;;23.50;100583.00;;;;5071547;28;20689;-76
2021/07/25 04:35:55;;;;;;;20.50;15.10;;;;;23.60;100588.00;;;;5080428;28;20230;-76
2021/07/25 04:38:23;;;;;;;20.25;14.90;;;;;23.50;100581.00;;;;5070584;28;20217;-76
2021/07/25 04:40:57;;;;;;;19.27;14.50;;;;;23.50;100580.00;;;;5071822;28;20244;-76
2021/07/25 04:43:30;;;;;;;20.17;14.25;;;;;23.50;100577.00;;;;5077141;28;20236;-76
2021/07/25 04:46:02;;;;;;;17.15;14.02;;;;;23.50;100590.00;;;;5090737;28;20232;-76
2021/07/25 04:48:35;;;;;;;20.10;14.65;;;;;23.50;100592.00;;;;5082190;28;20298;-76
2021/07/25 04:51:06;;;;;;;18.90;14.02;;;;;23.60;100590.00;;;;5070899;28;20199;-76
2021/07/25 04:53:39;;;;;;;16.92;13.70;;;;;23.60;100592.00;;;;5071693;28;20222;-77
2021/07/25 04:56:08;;;;;;;18.98;15.10;;;;;23.60;100595.00;;;;5079706;28;20234;-77
2021/07/25 04:58:44;;;;;;;15.85;13.85;;;;;23.60;100602.00;;;;5087135;28;20198;-77
2021/07/25 05:01:14;;;;;;;15.45;13.43;;;;;23.70;100601.00;;;;5071859;28;20198;-77
2021/07/25 05:03:42;;;;;;;17.20;14.30;;;;;23.70;100607.00;;;;5072917;28;20211;-77
2021/07/25 05:06:12;;;;;;;15.32;12.68;;;;;23.70;100605.00;;;;5071205;28;20213;-77
2021/07/25 05:08:40;;;;;;;19.23;14.05;;;;;23.80;100611.00;;;;5089234;28;20202;-77
2021/07/25 05:11:15;;;;;;;15.25;12.90;;;;;23.70;100607.00;;;;5088835;28;20198;-77
2021/07/25 05:13:46;;;;;;;16.90;12.70;;;;;23.80;100617.00;;;;5080401;28;20230;-77
2021/07/25 05:16:21;;;;;;;17.70;14.05;;;;;23.80;100611.00;;;;5079075;28;20252;-77
2021/07/25 05:19:02;;;;;;;16.13;11.98;;;;;23.80;100613.00;;;;5075824;28;20685;-77
2021/07/25 05:21:34;;;;;;;15.55;13.48;;;;;23.80;100620.00;;;;5071525;28;20221;-77
2021/07/25 05:24:05;;;;;;;17.45;13.57;;;;;23.90;100618.00;;;;5074043;28;20808;-77
2021/07/25 05:26:36;;;;;;;14.63;12.05;;;;;23.90;100624.00;;;;5090464;28;20198;-77
2021/07/25 05:29:05;;;;;;;14.40;11.65;;;;;23.90;100624.00;;;;5086901;28;20201;-77
2021/07/25 05:31:34;;;;;;;15.35;11.68;;;;;23.90;100624.00;;;;5088986;28;20190;-77
2021/07/25 05:34:03;;;;;;;14.57;12.40;;;;;24.00;100625.00;;;;5088616;28;20229;-77
2021/07/25 05:36:30;;;;;;;13.52;10.98;;;;;24.00;100628.00;;;;5085375;28;21337;-77
2021/07/25 05:38:58;;;;;;;11.43;10.23;;;;;24.00;100628.00;;;;5086548;28;20301;-77
2021/07/25 05:41:25;;;;;;;13.32;10.90;;;;;24.00;100626.00;;;;5082994;28;20713;-77
2021/07/25 05:43:53;;;;;;;13.93;10.73;;;;;24.10;100631.00;;;;5083297;28;20202;-77
2021/07/25 05:46:22;;;;;;;14.05;9.75;;;;;24.10;100630.00;;;;5089885;28;20186;-77
2021/07/25 05:48:50;;;;;;;10.45;8.63;;;;;24.20;100635.00;;;;5086198;28;20191;-77
2021/07/25 05:51:17;;;;;;;12.25;10.27;;;;;24.30;100629.00;;;;5086956;28;20225;-77
2021/07/25 05:53:44;;;;;;;10.25;8.13;;;;;24.30;100623.00;;;;5085785;28;20198;-77
2021/07/25 05:56:11;;;;;;;11.65;8.68;;;;;24.40;100632.00;;;;5078075;28;20221;-77
2021/07/25 05:58:39;;;;;;;8.50;7.25;;;;;24.40;100628.00;;;;5082144;28;20199;-77
2021/07/25 06:01:06;;;;;;;7.80;6.97;;;;;24.50;100622.00;;;;5081294;28;20199;-77
2021/07/25 06:03:34;;;;;;;8.98;6.95;;;;;24.50;100621.00;;;;5082556;28;20648;-78
2021/07/25 06:06:02;;;;;;;9.20;7.70;;;;;24.60;100617.00;;;;5080246;28;20201;-78
2021/07/25 06:08:29;;;;;;;8.75;7.60;;;;;24.60;100620.00;;;;5080631;28;20190;-78
2021/07/25 06:10:56;;;;;;;9.77;7.63;;;;;24.60;100619.00;;;;5075517;28;20198;-77
2021/07/25 06:13:23;;;;;;;8.07;7.05;;;;;24.60;100622.00;;;;5082138;28;20214;-78
2021/07/25 06:15:50;;;;;;;7.80;6.55;;;;;24.70;100616.00;;;;5074948;28;20234;-78
2021/07/25 06:18:18;;;;;;;6.38;5.35;;;;;24.70;100617.00;;;;5069804;28;20199;-78
2021/07/25 06:20:46;;;;;;;7.65;6.70;;;;;24.70;100619.00;;;;5075782;28;20683;-77
2021/07/25 06:23:15;;;;;;;7.97;6.32;;;;;24.80;100623.00;;;;5070563;28;20202;-77
2021/07/25 06:25:42;;;;;;;7.85;5.85;;;;;24.80;100617.00;;;;5071234;28;20191;-78
2021/07/25 06:28:11;;;;;;;7.50;5.35;;;;;24.80;100623.00;;;;5084272;28;20213;-78
2021/07/25 06:30:38;;;;;;;8.10;6.07;;;;;24.90;100627.00;;;;5072472;28;20199;-78
2021/07/25 06:33:07;;;;;;;6.03;5.22;;;;;24.90;100623.00;;;;5069200;28;20199;-78
2021/07/25 06:35:36;;;;;;;7.65;5.80;;;;;25.00;100627.00;;;;5076462;28;20411;-78
2021/07/25 06:38:07;;;;;;;7.10;5.57;;;;;25.00;100627.00;;;;5069827;28;20203;-78
2021/07/25 06:40:35;;;;;;;5.80;4.65;;;;;25.10;100623.00;;;;5070050;28;20199;-78
2021/07/25 06:43:03;;;;;;;5.63;4.82;;;;;25.20;100630.00;;;;5068189;28;20572;-78
2021/07/25 06:45:32;;;;;;;8.57;5.28;;;;;25.20;100632.00;;;;5080918;28;20203;-78
2021/07/25 06:47:59;;;;;;;4.97;4.47;;;;;25.30;100629.00;;;;5069091;28;20207;-78
2021/07/25 06:50:28;;;;;;;7.32;5.57;;;;;25.30;100627.00;;;;5068974;28;20210;-78
2021/07/25 06:52:56;;;;;;;5.72;4.40;;;;;25.40;100626.00;;;;5069065;28;20195;-78
2021/07/25 06:55:27;;;;;;;6.55;4.82;;;;;25.50;100626.00;;;;5078066;28;20219;-78
2021/07/25 06:57:54;;;;;;;6.10;5.15;;;;;25.60;100625.00;;;;5069816;28;20660;-78
2021/07/25 07:00:22;;;;;;;5.43;4.63;;;;;25.70;100623.00;;;;5068963;28;20195;-78
2021/07/25 07:02:50;;;;;;;7.60;4.85;;;;;25.70;100628.00;;;;5086518;28;20576;-78
2021/07/25 07:05:18;;;;;;;8.20;4.65;;;;;25.80;100630.00;;;;5069420;28;20199;-78
2021/07/25 07:07:47;;;;;;;6.57;5.03;;;;;25.90;100631.00;;;;5067513;28;20202;-78
2021/07/25 07:10:15;;;;;;;6.05;4.47;;;;;26.00;100628.00;;;;5079542;28;20198;-79
2021/07/25 07:12:44;;;;;;;8.15;5.00;;;;;26.00;100628.00;;;;5087484;28;20575;-79
2021/07/25 07:15:12;;;;;;;7.20;5.57;;;;;26.10;100622.00;;;;5088567;28;20233;-78
2021/07/25 07:17:39;;;;;;;5.45;4.80;;;;;26.20;100621.00;;;;5078662;28;20212;-79
2021/07/25 07:20:08;;;;;;;7.45;4.32;;;;;26.30;100623.00;;;;5069143;28;20222;-79
2021/07/25 07:22:36;;;;;;;6.07;5.10;;;;;26.40;100623.00;;;;5075223;28;20202;-79
2021/07/25 07:25:06;;;;;;;8.45;4.80;;;;;26.50;100619.00;;;;5074204;28;20202;-80
2021/07/25 07:27:35;;;;;;;8.50;5.03;;;;;26.60;100627.00;;;;5079844;28;20203;-79
2021/07/25 07:30:05;;;;;;;7.03;5.30;;;;;26.70;100630.00;;;;5074874;28;20686;-79
2021/07/25 07:32:32;;;;;;;6.57;4.88;;;;;26.80;100637.00;;;;5087057;28;20194;-79
2021/07/25 07:34:59;;;;;;;5.97;4.43;;;;;26.90;100634.00;;;;5076483;28;20226;-79
2021/07/25 07:37:26;;;;;;;7.35;5.00;;;;;26.90;100639.00;;;;5080118;28;20230;-78
2021/07/25 07:39:54;;;;;;;6.13;4.57;;;;;27.00;100641.00;;;;5067868;28;20483;-78
2021/07/25 07:42:21;;;;;;;7.93;5.43;;;;;27.10;100646.00;;;;5067574;28;20199;-78
2021/07/25 07:44:48;;;;;;;6.00;4.60;;;;;27.20;100641.00;;;;5067490;28;20677;-78
2021/07/25 07:47:17;;;;;;;6.38;4.68;;;;;27.30;100642.00;;;;5069846;28;20546;-79
2021/07/25 07:49:44;;;;;;;6.70;4.22;;;;;27.40;100643.00;;;;5068084;28;20582;-75
2021/07/25 07:52:11;;;;;;;5.85;4.32;;;;;27.40;100638.00;;;;5079892;28;20592;-75
2021/07/25 07:54:39;;;;;;;5.10;4.38;;;;;27.50;100644.00;;;;5080571;28;20225;-76
2021/07/25 07:57:06;;;;;;;4.30;3.72;;;;;27.60;100650.00;;;;5083530;28;20194;-76
2021/07/25 07:59:33;;;;;;;6.07;4.97;;;;;27.70;100648.00;;;;5078580;28;20242;-77
2021/07/25 08:02:00;;;;;;;8.07;5.00;;;;;27.80;100652.00;;;;5068709;28;20273;-76
2021/07/25 08:04:29;;;;;;;7.55;5.07;;;;;27.90;100653.00;;;;5069669;28;20191;-77
2021/07/25 08:06:56;;;;;;;6.38;4.65;;;;;28.00;100655.00;;;;5084073;28;20676;-76
2021/07/25 08:09:24;;;;;;;6.43;5.30;;;;;28.10;100656.00;;;;5082572;28;20199;-77
2021/07/25 08:11:53;;;;;;;6.72;4.57;;;;;28.20;100651.00;;;;5077392;28;20186;-77
2021/07/25 08:14:21;;;;;;;7.55;4.50;;;;;28.30;100655.00;;;;5089214;28;20190;-79
2021/07/25 08:16:49;;;;;;;6.57;5.43;;;;;28.40;100650.00;;;;5072928;28;20197;-79
2021/07/25 08:19:17;;;;;;;6.38;4.93;;;;;28.40;100654.00;;;;5072080;28;20206;-78
2021/07/25 08:21:45;;;;;;;5.95;5.13;;;;;28.50;100660.00;;;;5071562;28;20206;-78
2021/07/25 08:24:13;;;;;;;6.20;4.80;;;;;28.60;100661.00;;;;5087306;28;20198;-81
2021/07/25 08:26:40;;;;;;;6.25;4.72;;;;;28.70;100661.00;;;;5091368;28;20206;-79
2021/07/25 08:29:07;;;;;;;6.45;5.28;;;;;28.70;100670.00;;;;5091432;28;20201;-80
2021/07/25 08:31:35;;;;;;;5.95;5.00;;;;;28.80;100668.00;;;;5092482;28;20194;-80
2021/07/25 08:34:02;;;;;;;5.10;4.57;;;;;28.90;100660.00;;;;5080182;28;20199;-80
2021/07/25 08:36:31;;;;;;;8.63;4.60;;;;;29.00;100662.00;;;;5071917;28;20739;-79
2021/07/25 08:39:00;;;;;;;6.72;5.30;;;;;29.10;100668.00;;;;5083129;28;20202;-80
2021/07/25 08:41:41;;;;;;;5.38;4.30;;;;;29.20;100662.00;;;;5092256;28;20206;-80
2021/07/25 08:44:38;;;;;;;4.60;4.15;;;;;29.30;100664.00;;;;5076663;28;20665;-80
2021/07/25 08:47:14;;;;;;;5.28;4.53;;;;;29.40;100665.00;;;;5071920;28;20201;-79
2021/07/25 08:49:49;;;;;;;6.43;4.78;;;;;29.50;100667.00;;;;5088703;28;20279;-80
2021/07/25 08:52:19;;;;;;;6.55;4.32;;;;;29.60;100663.00;;;;5085857;28;20202;-80
2021/07/25 08:54:48;;;;;;;4.88;4.22;;;;;29.70;100667.00;;;;5077967;28;20599;-80
2021/07/25 08:57:17;;;;;;;5.18;4.65;;;;;29.70;100661.00;;;;5091605;28;20202;-81
2021/07/25 08:59:49;;;;;;;7.57;4.53;;;;;29.80;100665.00;;;;5086810;28;20681;-80
2021/07/25 09:02:22;;;;;;;6.00;4.75;;;;;29.80;100667.00;;;;5071850;28;20228;-80
2021/07/25 09:04:51;;;;;;;6.03;4.47;;;;;30.00;100669.00;;;;5077924;28;20201;-80
2021/07/25 09:07:20;;;;;;;6.18;4.22;;;;;30.00;100665.00;;;;5084539;28;20201;-80
2021/07/25 09:09:50;;;;;;;5.47;4.07;;;;;30.10;100671.00;;;;5076224;28;20187;-80
2021/07/25 09:12:20;;;;;;;6.32;4.93;;;;;30.20;100675.00;;;;5078943;28;20198;-79
2021/07/25 09:14:50;;;;;;;6.28;4.97;;;;;30.30;100680.00;;;;5085307;28;20202;-80
2021/07/25 09:17:18;;;;;;;5.55;4.18;;;;;30.30;100684.00;;;;5089106;28;20636;-80
2021/07/25 09:20:12;;;;;;;6.03;4.45;;;;;30.30;100677.00;;;;5083323;28;20215;-79
2021/07/25 09:22:54;;;;;;;7.10;4.25;;;;;30.40;100681.00;;;;5087304;28;20202;-79
2021/07/25 09:25:31;;;;;;;5.85;4.95;;;;;30.40;100677.00;;;;5078652;28;21018;-80
2021/07/25 09:28:29;;;;;;;7.13;4.53;;;;;30.50;100683.00;;;;5076596;28;20187;-79
2021/07/25 09:30:57;;;;;;;5.30;3.63;;;;;30.70;100678.00;;;;5075380;28;20280;-79
2021/07/25 09:33:33;;;;;;;5.45;4.55;;;;;30.80;100681.00;;;;5080080;28;20612;-80
2021/07/25 09:36:11;;;;;;;6.00;4.68;;;;;30.80;100686.00;;;;5085638;28;20635;-80
2021/07/25 09:38:41;;;;;;;7.85;3.53;;;;;31.00;100688.00;;;;5079536;28;20277;-79
2021/07/25 09:41:24;;;;;;;4.78;3.95;;;;;31.00;100683.00;;;;5082980;28;20202;-79
2021/07/25 09:44:02;;;;;;;9.25;5.63;;;;;31.10;100685.00;;;;5076844;28;20212;-79
2021/07/25 09:46:45;;;;;;;5.45;3.70;;;;;31.10;100686.00;;;;5081885;28;20233;-79
2021/07/25 09:49:12;;;;;;;5.45;4.10;;;;;31.20;100688.00;;;;5076409;28;20199;-79
2021/07/25 09:51:40;;;;;;;5.00;3.97;;;;;31.20;100687.00;;;;5084806;28;20209;-79
2021/07/25 09:54:07;;;;;;;4.30;3.00;;;;;31.30;100680.00;;;;5086378;28;20199;-79
2021/07/25 09:56:35;;;;;;;4.45;2.97;;;;;31.30;100676.00;;;;5086749;28;20221;-79
2021/07/25 09:59:03;;;;;;;4.03;3.20;;;;;31.40;100683.00;;;;5095073;28;20198;-79
2021/07/25 10:01:38;;;;;;;5.65;2.85;;;;;31.50;100679.00;;;;5086704;28;20209;-79
2021/07/25 10:04:13;;;;;;;3.70;2.45;;;;;31.60;100683.00;;;;5083536;28;20281;-79
2021/07/25 10:06:43;;;;;;;4.05;3.05;;;;;31.80;100678.00;;;;5087327;28;20240;-80
2021/07/25 10:09:11;;;;;;;2.75;2.45;;;;;31.90;100677.00;;;;5084892;28;20206;-79
2021/07/25 10:11:43;;;;;;;6.05;3.15;;;;;31.90;100680.00;;;;5082863;28;20193;-79
2021/07/25 10:14:11;;;;;;;2.58;2.20;;;;;32.10;100681.00;;;;5089902;28;20268;-79
2021/07/25 10:16:39;;;;;;;5.40;2.35;;;;;32.20;100679.00;;;;5089647;28;20715;-78
2021/07/25 10:19:08;;;;;;;6.22;3.13;;;;;32.30;100684.00;;;;5078960;28;20203;-80
2021/07/25 10:21:37;;;;;;;4.35;2.63;;;;;32.30;100679.00;;;;5086649;28;20221;-80
2021/07/25 10:24:06;;;;;;;3.75;2.30;;;;;32.40;100676.00;;;;5073501;28;20198;-80
2021/07/25 10:26:36;;;;;;;2.85;2.38;;;;;32.40;100667.00;;;;5074081;28;20202;-80
2021/07/25 10:29:07;;;;;;;4.30;3.05;;;;;32.50;100672.00;;;;5080196;28;20198;-80
2021/07/25 10:31:37;;;;;;;3.92;3.05;;;;;32.60;100669.00;;;;5073790;28;20220;-79
2021/07/25 10:34:06;;;;;;;2.78;2.58;;;;;32.70;100666.00;;;;5074588;28;20197;-79
2021/07/25 10:36:34;;;;;;;3.67;2.95;;;;;32.80;100665.00;;;;5078533;28;20238;-80
2021/07/25 10:39:01;;;;;;;4.10;3.15;;;;;32.80;100663.00;;;;5072597;28;20198;-79
2021/07/25 10:41:29;;;;;;;3.63;3.15;;;;;32.90;100668.00;;;;5081757;28;20202;-79
2021/07/25 10:44:02;;;;;;;5.13;3.45;;;;;32.90;100660.00;;;;5075598;28;20206;-79
2021/07/25 10:46:32;;;;;;;3.53;3.08;;;;;32.90;100668.00;;;;5076434;28;20255;-80
2021/07/25 10:49:17;;;;;;;6.18;3.75;;;;;32.80;100662.00;;;;5088346;28;20212;-80
2021/07/25 10:51:56;;;;;;;4.53;3.70;;;;;32.80;100667.00;;;;5069066;28;20191;-80
2021/07/25 10:54:34;;;;;;;4.28;3.42;;;;;32.80;100669.00;;;;5080932;28;20193;-80
2021/07/25 10:57:03;;;;;;;3.65;3.33;;;;;32.80;100665.00;;;;5087849;28;20221;-79
2021/07/25 10:59:41;;;;;;;4.05;3.53;;;;;32.70;100668.00;;;;5070846;28;20214;-81
2021/07/25 11:02:13;;;;;;;4.22;3.22;;;;;32.80;100676.00;;;;5070866;28;20195;-79
2021/07/25 11:05:03;;;;;;;3.30;2.83;;;;;32.70;100661.00;;;;5074104;28;20668;-79
2021/07/25 11:07:38;;;;;;;4.70;3.92;;;;;32.80;100663.00;;;;5085521;28;20201;-79
2021/07/25 11:10:13;;;;;;;4.05;2.97;;;;;32.90;100660.00;;;;5082469;28;20205;-79
2021/07/25 11:13:19;;;;;;;4.72;2.97;;;;;32.80;100670.00;;;;5071497;28;20197;-80
2021/07/25 11:15:50;;;;;;;2.28;1.92;;;;;32.90;100666.00;;;;5080459;28;20226;-80
2021/07/25 11:18:37;;;;;;;3.38;2.10;;;;;32.80;100670.00;;;;5072069;28;20202;-79
2021/07/25 11:21:12;;;;;;;2.78;2.10;;;;;32.90;100669.00;;;;5078657;28;20220;-79
2021/07/25 11:23:40;;;;;;;2.28;1.75;;;;;32.80;100666.00;;;;5077805;28;20240;-79
2021/07/25 11:26:36;;;;;;;2.70;2.13;;;;;32.60;100663.00;;;;5077819;28;20199;-79
2021/07/25 11:29:07;;;;;;;2.20;2.00;;;;;32.70;100663.00;;;;5069509;28;20241;-79
2021/07/25 11:31:52;;;;;;;2.17;1.77;;;;;32.60;100662.00;;;;5081295;28;20198;-80
2021/07/25 11:34:28;;;;;;;2.75;1.90;;;;;32.60;100662.00;;;;5080717;28;20202;-82
2021/07/25 11:36:56;;;;;;;3.17;2.45;;;;;32.70;100661.00;;;;5067273;28;20470;-79
2021/07/25 11:39:24;;;;;;;4.05;2.65;;;;;32.60;100668.00;;;;5082138;28;20206;-80
2021/07/25 11:41:52;;;;;;;2.92;2.45;;;;;32.60;100675.00;;;;5074501;28;20194;-80
2021/07/25 11:44:27;;;;;;;2.53;2.08;;;;;32.50;100674.00;;;;5072141;28;20198;-79
2021/07/25 11:46:55;;;;;;;2.95;2.25;;;;;32.60;100678.00;;;;5075121;28;20233;-79
2021/07/25 11:49:25;;;;;;;3.10;2.15;;;;;32.50;100676.00;;;;5068730;28;20195;-79
2021/07/25 11:51:55;;;;;;;3.30;2.05;;;;;32.40;100667.00;;;;5079027;28;20206;-79
2021/07/25 11:54:25;;;;;;;5.15;2.63;;;;;32.40;100671.00;;;;5092698;28;20286;-79
2021/07/25 11:56:57;;;;;;;2.60;2.22;;;;;32.40;100673.00;;;;5087777;28;21045;-78
2021/07/25 11:59:24;;;;;;;3.33;3.00;;;;;32.40;100673.00;;;;5083016;28;20217;-79
2021/07/25 12:01:52;;;;;;;3.05;2.58;;;;;32.40;100664.00;;;;5071410;28;20202;-79
2021/07/25 12:04:22;;;;;;;3.30;2.20;;;;;32.40;100678.00;;;;5081177;28;20570;-82
2021/07/25 12:07:00;;;;;;;3.50;2.22;;;;;32.30;100676.00;;;;5073226;28;20198;-79
2021/07/25 12:09:27;;;;;;;2.22;1.73;;;;;32.30;100676.00;;;;5077903;28;20224;-79
2021/07/25 12:12:07;;;;;;;2.63;1.80;;;;;32.20;100677.00;;;;5079397;28;20194;-78